• Join FlightAware (Why Join?)
  • Login
  • US Flag 
Gobble Gobble! 
06:19PM EST


 

Airport Tracker/Info


-or-


 

Live Flight TrackerFlight Track Log ✈ FSR411 ✈ 01-Jul-2014 ✈ KGVL - KUZA

Flight Track Log - Related Links

Times and Time Zones

All times are in EDT time to prevent confusion due to time zone crossing. See the FSR411 flight status page for this flight to view local times or setup timezone preferences in your user account.

Time Position Orientation Groundspeed Altitude Reporting Facility
EDT Latitude Longitude Course Direction KTS MPH feet Rate Location/Type
08:15AM 34.2833 -83.8167 129° Southeast 155 178 2,300  Level Atlanta TRACON
08:16AM 34.2833 -83.7667 90° East 200 230 4,500 1,800 Climbing Atlanta TRACON
08:17AM 34.2447 -83.7147 132° Southeast 224 258 5,500 1,680 Climbing Atlanta Center
08:18AM 34.1922 -83.6469 133° Southeast 246 283 7,500 2,100 Climbing Atlanta Center
08:19AM 34.1378 -83.5769 133° Southeast 269 310 9,700 2,040 Climbing Atlanta Center
08:20AM 34.0769 -83.4972 133° Southeast 295 339 11,600 2,280 Climbing Atlanta Center
08:21AM 34.0233 -83.4516 129° Southeast  Level FlightAware Approximate
08:21AM 34.0244 -83.4122 127° Southeast 314 361 14,300  Level Atlanta Center
08:22AM 34.0592 -83.3042 69° East 292 336 15,000 300 Climbing Atlanta Center
08:23AM 34.1044 -83.1908 64° Northeast 319 367 15,000  Level Atlanta Center
08:24AM 34.1475 -83.0800 65° Northeast 333 383 15,000  Level Atlanta Center
08:25AM 34.1903 -82.9714 65° Northeast 352 405 15,000  Level Atlanta Center
08:26AM 34.2331 -82.8578 65° Northeast 363 418 15,000  Level Atlanta Center
08:27AM 34.2758 -82.7467 65° Northeast 363 418 15,000  Level Atlanta Center
08:28AM 34.3206 -82.6353 64° Northeast 363 418 15,000  Level Atlanta Center
08:29AM 34.3631 -82.5239 65° Northeast 363 418 15,000  Level Atlanta Center
08:30AM 34.4075 -82.4122 64° Northeast 363 418 15,000  Level Atlanta Center
08:31AM 34.4497 -82.2956 66° East 363 418 15,000  Level Atlanta Center
08:32AM 34.4919 -82.1864 65° Northeast 363 418 15,000  Level Atlanta Center
08:33AM 34.5361 -82.0719 65° Northeast 363 418 15,000  Level Atlanta Center
08:34AM 34.5761 -81.9600 67° East 363 418 15,000 -540 Level Atlanta Center
08:35AM 34.6178 -81.8478 66° East 363 418 14,000 -1,200 Descending Atlanta Center
08:36AM 34.6578 -81.7483 64° Northeast 363 418 12,600 -1,440 Descending Atlanta Center
08:36AM 34.6736 -81.7050 66° East 362 417 12,200 -600 Descending Atlanta Center
08:37AM 34.7014 -81.6283 66° East 357 411 12,000 -120 Descending Atlanta Center
08:38AM 34.7353 -81.5467 63° Northeast 336 387 12,000 -120 Level Atlanta Center
08:39AM 34.7900 -81.4717 48° Northeast 312 359 11,800 -720 Descending Atlanta Center
08:40AM 34.8489 -81.3964 46° Northeast 250 288 10,600 -1,200 Descending Atlanta Center
08:41AM 34.8914 -81.3342 50° Northeast 253 291 9,500 -1,800 Descending Atlanta Center
08:42AM 34.8311 -81.2553 133° Southeast 253 291 7,000 -2,280 Descending Atlanta Center
08:43AM 34.7944 -81.2033 131° Southeast 203 234 5,000 -2,040 Descending Atlanta Center
08:44AM 34.7719 -81.1333 111° Southeast 228 262 3,100 -1,260 Descending Atlanta Center
08:45AM 34.8214 -81.1011 28° Northeast 185 213 2,500 -300 Descending Atlanta Center
08:46AM 34.8628 -81.0897 13° North 134 154 2,500 -240 Level Atlanta Center
08:47AM 34.9106 -81.0803 North 157 181 2,100 -600 Descending Atlanta Center
08:48AM 34.9458 -81.0714 12° North 134 154 1,400 -780 Descending Atlanta Center